createdAt,value
2023-04-29T00:00:50.606Z,68.38
2023-04-29T00:03:29.663Z,69.03
2023-04-29T00:06:07.189Z,69.09
2023-04-29T00:08:43.850Z,68.98
2023-04-29T00:11:20.221Z,68.73
2023-04-29T00:13:56.476Z,68.77
2023-04-29T00:16:33.391Z,68.98
2023-04-29T00:19:09.754Z,69.14
2023-04-29T00:21:45.992Z,69.36
2023-04-29T00:24:22.203Z,69.59
2023-04-29T00:26:58.616Z,69.74
2023-04-29T00:29:35.613Z,69.70
2023-04-29T00:32:12.350Z,69.79
2023-04-29T00:34:48.945Z,69.80
2023-04-29T00:37:25.322Z,70.06
2023-04-29T00:40:01.505Z,70.61
2023-04-29T00:42:38.426Z,70.58
2023-04-29T00:45:16.320Z,70.70
2023-04-29T00:47:52.691Z,70.39
2023-04-29T00:50:29.382Z,70.49
2023-04-29T00:53:06.131Z,70.59
2023-04-29T00:55:45.228Z,70.89
2023-04-29T00:58:22.981Z,70.94
2023-04-29T01:00:59.857Z,70.87
2023-04-29T01:03:37.273Z,71.02
2023-04-29T01:06:30.513Z,71.17
2023-04-29T01:09:39.671Z,71.19
2023-04-29T01:12:32.385Z,71.50
2023-04-29T01:15:23.411Z,71.80
2023-04-29T01:18:14.048Z,72.22
2023-04-29T01:20:51.350Z,72.45
2023-04-29T01:23:32.928Z,72.53
2023-04-29T01:26:10.339Z,72.79
2023-04-29T01:29:45.530Z,73.09
2023-04-29T01:32:44.737Z,73.14
2023-04-29T01:35:52.905Z,73.21
2023-04-29T01:38:43.225Z,73.23
2023-04-29T01:41:36.155Z,73.40
2023-04-29T01:44:34.247Z,73.42
2023-04-29T01:47:15.073Z,73.60
2023-04-29T01:49:56.745Z,73.78
2023-04-29T01:52:33.238Z,74.00
2023-04-29T01:55:12.501Z,74.27
2023-04-29T01:58:05.023Z,74.48
2023-04-29T02:00:55.089Z,74.97
2023-04-29T02:03:31.796Z,75.23
2023-04-29T02:06:10.485Z,75.36
2023-04-29T02:08:48.663Z,75.41
2023-04-29T02:11:26.811Z,75.39
2023-04-29T02:14:05.271Z,75.58
2023-04-29T02:16:42.061Z,75.66
2023-04-29T02:19:18.313Z,75.73
2023-04-29T02:21:54.565Z,75.82
2023-04-29T02:24:30.895Z,75.98
2023-04-29T02:27:07.387Z,76.00
2023-04-29T02:29:43.713Z,76.15
2023-04-29T02:32:20.808Z,76.02
2023-04-29T02:34:57.171Z,75.65
2023-04-29T02:37:33.803Z,75.34
2023-04-29T02:40:13.920Z,75.64
2023-04-29T02:42:50.179Z,75.97
2023-04-29T02:45:26.489Z,76.11
2023-04-29T02:48:02.793Z,76.01
2023-04-29T02:50:39.659Z,75.90
2023-04-29T02:53:16.665Z,75.89
2023-04-29T02:55:53.036Z,75.99
2023-04-29T02:58:29.346Z,75.77
2023-04-29T03:01:06.067Z,75.70
2023-04-29T03:03:42.633Z,75.54
2023-04-29T03:06:19.214Z,75.34
2023-04-29T03:08:56.044Z,75.02
2023-04-29T03:11:32.457Z,75.03
2023-04-29T03:14:10.398Z,75.17
2023-04-29T03:16:46.913Z,74.61
2023-04-29T03:19:23.223Z,74.41
2023-04-29T03:21:59.716Z,74.73
2023-04-29T03:24:36.045Z,74.85
2023-04-29T03:27:12.512Z,75.05
2023-04-29T03:29:49.976Z,75.43
2023-04-29T03:32:26.828Z,75.47
2023-04-29T03:35:03.625Z,75.37
2023-04-29T03:37:47.611Z,75.63
2023-04-29T03:40:32.770Z,75.44
2023-04-29T03:43:09.477Z,75.34
2023-04-29T03:45:46.057Z,75.18
2023-04-29T03:48:24.153Z,75.13
2023-04-29T03:51:01.630Z,75.10
2023-04-29T03:53:38.709Z,75.18
2023-04-29T03:56:16.947Z,75.03
2023-04-29T03:58:53.875Z,75.14
2023-04-29T04:01:31.582Z,75.02
2023-04-29T04:04:08.371Z,74.91
2023-04-29T04:06:51.334Z,74.87
2023-04-29T04:09:30.185Z,74.62
2023-04-29T04:12:07.570Z,74.79
2023-04-29T04:14:43.810Z,74.73
2023-04-29T04:17:20.120Z,74.73
2023-04-29T04:19:56.741Z,74.30
2023-04-29T04:22:33.337Z,74.21
2023-04-29T04:25:20.779Z,74.04
2023-04-29T04:27:57.356Z,73.96
2023-04-29T04:30:43.916Z,73.69
2023-04-29T04:33:20.358Z,73.65
2023-04-29T04:35:56.788Z,73.56
2023-04-29T04:38:33.274Z,73.34
2023-04-29T04:41:12.284Z,73.47
2023-04-29T04:43:49.600Z,73.48
2023-04-29T04:46:33.955Z,73.54
2023-04-29T04:50:00.262Z,73.31
2023-04-29T04:52:36.815Z,73.36
2023-04-29T04:55:23.925Z,73.28
2023-04-29T04:58:00.429Z,73.17
2023-04-29T05:00:37.554Z,73.13
2023-04-29T05:03:13.937Z,73.23
2023-04-29T05:05:56.769Z,73.18
2023-04-29T05:08:33.104Z,73.00
2023-04-29T05:11:19.697Z,73.03
2023-04-29T05:14:03.854Z,73.21
2023-04-29T05:16:46.662Z,73.19
2023-04-29T05:19:23.226Z,73.01
2023-04-29T05:21:59.501Z,72.99
2023-04-29T05:24:36.178Z,73.13
2023-04-29T05:27:12.434Z,73.25
2023-04-29T05:29:48.673Z,73.25
2023-04-29T05:32:24.976Z,72.96
2023-04-29T05:35:01.843Z,72.67
2023-04-29T05:37:38.284Z,72.78
2023-04-29T05:40:38.424Z,72.64
2023-04-29T05:44:08.548Z,72.34
2023-04-29T05:46:45.163Z,72.14
2023-04-29T05:49:21.717Z,72.04
2023-04-29T05:51:58.056Z,71.49
2023-04-29T05:54:34.715Z,71.34
2023-04-29T05:57:11.337Z,72.14
2023-04-29T05:59:49.698Z,72.29
2023-04-29T06:02:26.018Z,72.23
2023-04-29T06:05:02.892Z,72.06
2023-04-29T06:07:50.635Z,72.31
2023-04-29T06:10:41.278Z,71.75
2023-04-29T06:13:19.153Z,71.63
2023-04-29T06:15:55.788Z,71.70
2023-04-29T06:18:32.676Z,71.62
2023-04-29T06:21:09.594Z,72.01
2023-04-29T06:23:46.410Z,71.45
2023-04-29T06:26:27.516Z,70.99
2023-04-29T06:29:03.940Z,70.97
2023-04-29T06:31:40.362Z,70.83
2023-04-29T06:34:17.428Z,70.63
2023-04-29T06:37:19.370Z,70.54
2023-04-29T06:40:36.580Z,70.19
2023-04-29T06:43:54.085Z,70.04
2023-04-29T06:47:17.144Z,69.84
2023-04-29T06:50:34.048Z,69.19
2023-04-29T06:53:10.305Z,68.92
2023-04-29T06:55:47.577Z,68.17
2023-04-29T06:58:24.223Z,67.60
2023-04-29T07:01:00.659Z,67.55
2023-04-29T07:03:37.199Z,66.72
2023-04-29T07:06:13.853Z,66.45
2023-04-29T07:08:50.395Z,66.54
2023-04-29T07:11:28.226Z,66.51
2023-04-29T07:14:04.797Z,65.48
2023-04-29T07:16:41.787Z,65.50
2023-04-29T07:19:20.158Z,65.64
2023-04-29T07:21:56.877Z,65.72
2023-04-29T07:24:33.579Z,65.30
2023-04-29T07:27:10.383Z,65.25
2023-04-29T07:29:46.798Z,64.86
2023-04-29T07:32:23.235Z,64.86
2023-04-29T07:34:59.742Z,63.51
2023-04-29T07:37:36.087Z,63.39
2023-04-29T07:40:16.322Z,62.56
2023-04-29T07:42:53.691Z,62.12
2023-04-29T07:45:29.927Z,61.46
2023-04-29T07:48:07.023Z,60.17
2023-04-29T07:50:44.333Z,59.74
2023-04-29T07:53:20.627Z,58.73
2023-04-29T07:55:57.063Z,58.22
2023-04-29T07:58:35.765Z,57.45
2023-04-29T08:01:15.720Z,57.00
2023-04-29T08:03:52.098Z,56.60
2023-04-29T08:06:29.619Z,55.41
2023-04-29T08:09:06.272Z,55.09
2023-04-29T08:11:42.518Z,54.81
2023-04-29T08:14:21.822Z,53.83
2023-04-29T08:16:58.023Z,52.55
2023-04-29T08:19:34.708Z,52.67
2023-04-29T08:22:12.432Z,52.27
2023-04-29T08:24:49.607Z,52.41
2023-04-29T08:27:26.055Z,52.86
2023-04-29T08:30:02.483Z,52.23
2023-04-29T08:32:38.912Z,51.16
2023-04-29T08:35:16.323Z,51.42
2023-04-29T08:37:54.372Z,52.21
2023-04-29T08:40:30.752Z,51.65
2023-04-29T08:43:09.893Z,51.20
2023-04-29T08:45:49.419Z,50.36
2023-04-29T08:48:27.759Z,50.63
2023-04-29T08:51:05.147Z,50.84
2023-04-29T08:53:41.662Z,51.12
2023-04-29T08:56:22.161Z,51.11
2023-04-29T08:59:00.341Z,51.05
2023-04-29T09:01:40.684Z,49.71
2023-04-29T09:04:31.365Z,48.93
2023-04-29T09:07:08.921Z,48.96
2023-04-29T09:09:47.541Z,48.63
2023-04-29T09:12:24.031Z,48.85
2023-04-29T09:15:00.612Z,48.37
2023-04-29T09:17:49.507Z,47.48
2023-04-29T09:20:35.474Z,47.64
2023-04-29T09:23:12.041Z,46.98
2023-04-29T09:26:00.500Z,46.42
2023-04-29T09:28:39.806Z,46.25
2023-04-29T09:31:28.529Z,45.93
2023-04-29T09:34:05.957Z,45.99
2023-04-29T09:36:48.962Z,45.83
2023-04-29T09:39:27.034Z,44.34
2023-04-29T09:42:06.982Z,44.33
2023-04-29T09:44:46.429Z,44.70
2023-04-29T09:47:33.996Z,44.22
2023-04-29T09:50:19.954Z,44.96
2023-04-29T09:52:56.728Z,44.66
2023-04-29T09:55:34.221Z,44.04
2023-04-29T09:58:28.716Z,44.20
2023-04-29T10:01:07.604Z,43.11
2023-04-29T10:03:46.910Z,43.61
2023-04-29T10:06:24.864Z,44.53
2023-04-29T10:09:02.059Z,45.11
2023-04-29T10:11:39.241Z,45.09
2023-04-29T10:14:18.740Z,44.59
2023-04-29T10:17:03.984Z,44.39
2023-04-29T10:19:59.849Z,44.10
2023-04-29T10:22:49.647Z,43.79
2023-04-29T10:25:29.289Z,43.18
2023-04-29T10:28:10.789Z,43.44
2023-04-29T10:30:51.843Z,44.45
2023-04-29T10:33:31.234Z,44.48
2023-04-29T10:36:09.468Z,44.39
2023-04-29T10:38:53.364Z,43.99
2023-04-29T10:41:36.423Z,44.84
2023-04-29T10:44:12.903Z,44.27
2023-04-29T10:46:49.318Z,44.68
2023-04-29T10:49:35.111Z,46.08
2023-04-29T10:52:17.991Z,46.61
2023-04-29T10:55:09.320Z,47.08
2023-04-29T10:57:45.843Z,47.10
2023-04-29T11:00:32.668Z,47.31
2023-04-29T11:03:59.067Z,46.98
2023-04-29T11:06:52.545Z,45.38
2023-04-29T11:09:34.306Z,45.65
2023-04-29T11:12:13.725Z,45.73
2023-04-29T11:15:01.999Z,46.83
2023-04-29T11:17:42.925Z,46.89
2023-04-29T11:20:20.420Z,46.55
2023-04-29T11:23:00.264Z,47.32
2023-04-29T11:25:38.819Z,46.06
2023-04-29T11:28:17.553Z,46.34
2023-04-29T11:30:55.596Z,46.04
2023-04-29T11:33:34.927Z,46.50
2023-04-29T11:36:12.909Z,47.09
2023-04-29T11:38:50.052Z,46.41
2023-04-29T11:41:28.097Z,46.72
2023-04-29T11:44:07.665Z,47.15
2023-04-29T11:46:44.661Z,47.08
2023-04-29T11:49:21.493Z,47.29
2023-04-29T11:51:59.782Z,48.10
2023-04-29T11:54:36.949Z,47.91
2023-04-29T11:57:15.142Z,48.06
2023-04-29T11:59:52.037Z,48.17
2023-04-29T12:02:34.874Z,48.17
2023-04-29T12:05:16.109Z,48.70
2023-04-29T12:07:53.817Z,48.58
2023-04-29T12:10:31.406Z,48.41
2023-04-29T12:13:10.099Z,48.40
2023-04-29T12:15:48.065Z,48.99
2023-04-29T12:18:27.935Z,48.80
2023-04-29T12:21:04.584Z,48.39
2023-04-29T12:23:42.503Z,48.91
2023-04-29T12:26:21.281Z,48.74
2023-04-29T12:29:02.890Z,50.04
2023-04-29T12:31:40.475Z,48.30
2023-04-29T12:34:17.135Z,48.39
2023-04-29T12:36:55.701Z,48.40
2023-04-29T12:39:34.843Z,48.47
2023-04-29T12:42:19.618Z,48.24
2023-04-29T12:44:56.529Z,48.52
2023-04-29T12:47:37.627Z,48.37
2023-04-29T12:50:15.814Z,48.00
2023-04-29T12:52:52.350Z,47.79
2023-04-29T12:55:29.095Z,47.60
2023-04-29T12:58:06.087Z,47.72
2023-04-29T13:00:42.491Z,47.76
2023-04-29T13:03:22.020Z,48.36
2023-04-29T13:05:59.295Z,48.06
2023-04-29T13:08:35.841Z,48.09
2023-04-29T13:11:13.674Z,47.86
2023-04-29T13:13:50.317Z,48.64
2023-04-29T13:16:26.805Z,48.85
2023-04-29T13:19:17.084Z,49.17
2023-04-29T13:21:59.392Z,49.32
2023-04-29T13:24:37.373Z,49.32
2023-04-29T13:27:13.744Z,49.02
2023-04-29T13:29:50.674Z,49.78
2023-04-29T13:32:38.137Z,49.50
2023-04-29T13:35:20.225Z,50.06
2023-04-29T13:37:57.206Z,50.46
2023-04-29T13:40:38.346Z,50.54
2023-04-29T13:43:22.770Z,51.05
2023-04-29T13:46:07.552Z,51.74
2023-04-29T13:49:17.175Z,51.73
2023-04-29T13:59:46.681Z,52.55
2023-04-29T14:02:28.249Z,52.30
2023-04-29T14:05:04.993Z,52.55
2023-04-29T14:07:41.529Z,52.72
2023-04-29T14:10:17.904Z,52.93
2023-04-29T14:12:54.833Z,53.79
2023-04-29T14:15:31.655Z,53.76
2023-04-29T14:18:09.641Z,53.73
2023-04-29T14:20:46.136Z,54.37
2023-04-29T14:23:23.075Z,54.31
2023-04-29T14:26:16.559Z,53.99
2023-04-29T14:28:57.975Z,54.29
2023-04-29T14:31:38.418Z,54.70
2023-04-29T14:34:14.971Z,54.64
2023-04-29T14:36:51.644Z,54.92
2023-04-29T14:39:28.213Z,55.18
2023-04-29T14:42:04.788Z,56.52
2023-04-29T14:44:41.291Z,57.13
2023-04-29T14:47:18.141Z,57.11
2023-04-29T14:49:54.772Z,57.38
2023-04-29T14:52:31.170Z,58.28
2023-04-29T14:55:11.445Z,60.01
2023-04-29T14:57:47.887Z,60.56
2023-04-29T15:00:24.647Z,58.99
2023-04-29T15:03:03.696Z,59.16
2023-04-29T15:05:40.682Z,58.66
2023-04-29T15:08:18.177Z,59.32
2023-04-29T15:10:54.444Z,59.43
2023-04-29T15:13:31.996Z,59.41
2023-04-29T15:16:10.084Z,60.03
2023-04-29T15:18:46.589Z,60.19
2023-04-29T15:21:23.281Z,61.17
2023-04-29T15:24:00.042Z,61.52
2023-04-29T15:26:37.333Z,60.74
2023-04-29T15:29:14.306Z,61.39
2023-04-29T15:31:51.884Z,60.88
2023-04-29T15:34:28.269Z,60.75
2023-04-29T15:37:04.799Z,60.43
2023-04-29T15:39:41.589Z,60.54
2023-04-29T15:42:18.494Z,61.20
2023-04-29T15:44:56.179Z,61.48
2023-04-29T15:47:33.577Z,61.75
2023-04-29T15:50:12.695Z,62.30
2023-04-29T15:52:52.678Z,62.80
2023-04-29T15:55:29.532Z,63.10
2023-04-29T15:58:06.527Z,63.41
2023-04-29T16:00:42.905Z,63.64
2023-04-29T16:03:19.483Z,63.64
2023-04-29T16:05:57.074Z,63.37
2023-04-29T16:08:33.515Z,62.98
2023-04-29T16:11:10.271Z,62.74
2023-04-29T16:13:46.665Z,62.92
2023-04-29T16:16:25.139Z,63.12
2023-04-29T16:19:01.912Z,62.87
2023-04-29T16:21:38.842Z,62.21
2023-04-29T16:24:15.890Z,62.16
2023-04-29T16:26:52.333Z,62.31
2023-04-29T16:29:29.074Z,62.28
2023-04-29T16:32:06.524Z,62.43
2023-04-29T16:34:43.232Z,62.67
2023-04-29T16:37:19.738Z,62.94
2023-04-29T16:39:56.291Z,62.96
2023-04-29T16:42:32.826Z,63.01
2023-04-29T16:45:12.752Z,63.43
2023-04-29T16:47:49.471Z,63.95
2023-04-29T16:50:27.250Z,64.27
2023-04-29T16:53:03.862Z,64.53
2023-04-29T16:55:40.905Z,64.84
2023-04-29T16:58:18.301Z,65.15
2023-04-29T17:00:55.633Z,65.44
2023-04-29T17:03:32.629Z,65.64
2023-04-29T17:06:10.067Z,65.66
2023-04-29T17:08:48.665Z,65.83
2023-04-29T17:11:26.907Z,66.11
2023-04-29T17:14:03.977Z,66.40
2023-04-29T17:16:40.666Z,66.66
2023-04-29T17:19:17.237Z,66.82
2023-04-29T17:21:54.318Z,67.00
2023-04-29T17:24:31.322Z,67.24
2023-04-29T17:27:08.477Z,67.16
2023-04-29T17:29:45.804Z,67.73
2023-04-29T17:32:28.846Z,68.13
2023-04-29T17:35:06.361Z,68.51
2023-04-29T17:37:44.343Z,68.68
2023-04-29T17:40:21.399Z,68.82
2023-04-29T17:42:58.375Z,68.76
2023-04-29T17:45:35.207Z,68.66
2023-04-29T17:48:14.909Z,68.79
2023-04-29T17:50:51.676Z,68.94
2023-04-29T17:53:28.687Z,68.92
2023-04-29T17:56:05.758Z,68.99
2023-04-29T17:58:42.940Z,69.14
2023-04-29T18:01:20.789Z,69.86
2023-04-29T18:03:57.959Z,70.60
2023-04-29T18:06:35.038Z,71.69
2023-04-29T18:09:12.304Z,72.33
2023-04-29T18:11:49.352Z,73.13
2023-04-29T18:14:29.222Z,73.53
2023-04-29T18:17:06.241Z,73.84
2023-04-29T18:19:43.984Z,74.15
2023-04-29T18:22:21.210Z,74.47
2023-04-29T18:25:00.433Z,74.92
2023-04-29T18:27:37.329Z,75.08
2023-04-29T18:30:16.809Z,75.14
2023-04-29T18:32:54.602Z,75.10
2023-04-29T18:35:33.340Z,75.24
2023-04-29T18:38:14.348Z,75.58
2023-04-29T18:40:51.684Z,75.69
2023-04-29T18:43:30.600Z,75.93
2023-04-29T18:46:09.623Z,76.38
2023-04-29T18:48:48.007Z,76.51
2023-04-29T18:51:26.553Z,76.59
2023-04-29T18:54:04.642Z,76.52
2023-04-29T18:56:42.327Z,76.64
2023-04-29T18:59:20.680Z,77.20
2023-04-29T19:01:58.340Z,77.86
2023-04-29T19:04:36.271Z,78.29
2023-04-29T19:07:13.280Z,79.09
2023-04-29T19:09:56.774Z,79.04
2023-04-29T19:12:34.884Z,79.02
2023-04-29T19:15:15.363Z,78.99
2023-04-29T19:17:53.271Z,79.10
2023-04-29T19:20:32.150Z,79.19
2023-04-29T19:23:09.871Z,79.27
2023-04-29T19:25:48.613Z,79.30
2023-04-29T19:28:26.366Z,79.36
2023-04-29T19:31:08.786Z,79.53
2023-04-29T19:33:46.738Z,79.87
2023-04-29T19:36:26.538Z,79.89
2023-04-29T19:39:04.574Z,79.93
2023-04-29T19:41:43.296Z,79.90
2023-04-29T19:44:20.462Z,79.84
2023-04-29T19:47:00.963Z,79.91
2023-04-29T19:49:39.533Z,79.99
2023-04-29T19:52:27.599Z,80.19
2023-04-29T19:55:06.463Z,80.36
2023-04-29T19:57:44.224Z,80.50
2023-04-29T20:00:24.395Z,80.58
2023-04-29T20:03:03.075Z,80.64
2023-04-29T20:05:40.306Z,80.80
2023-04-29T20:08:17.322Z,80.80
2023-04-29T20:10:54.953Z,80.84
2023-04-29T20:13:32.201Z,80.80
2023-04-29T20:16:10.288Z,80.92
2023-04-29T20:18:47.973Z,81.08
2023-04-29T20:21:25.168Z,81.01
2023-04-29T20:24:04.965Z,80.98
2023-04-29T20:26:42.628Z,81.17
2023-04-29T20:29:20.348Z,81.25
2023-04-29T20:31:58.034Z,81.21
2023-04-29T20:34:36.525Z,81.24
2023-04-29T20:37:14.385Z,81.31
2023-04-29T20:39:51.733Z,81.37
2023-04-29T20:42:28.957Z,81.34
2023-04-29T20:45:07.364Z,81.47
2023-04-29T20:47:45.590Z,81.60
2023-04-29T20:50:24.283Z,81.59
2023-04-29T20:53:02.191Z,81.60
2023-04-29T20:55:39.622Z,81.76
2023-04-29T20:58:16.661Z,81.80
2023-04-29T21:00:56.980Z,81.80
2023-04-29T21:03:33.896Z,81.90
2023-04-29T21:06:11.898Z,81.98
2023-04-29T21:08:48.904Z,81.96
2023-04-29T21:11:26.373Z,81.95
2023-04-29T21:14:03.254Z,82.00
2023-04-29T21:16:40.470Z,82.00
2023-04-29T21:19:17.181Z,82.03
2023-04-29T21:21:53.959Z,82.10
2023-04-29T21:24:31.534Z,82.20
2023-04-29T21:27:08.249Z,82.33
2023-04-29T21:29:44.806Z,82.33
2023-04-29T21:32:21.880Z,82.25
2023-04-29T21:34:58.505Z,82.12
2023-04-29T21:37:35.488Z,82.11
2023-04-29T21:40:15.449Z,82.09
2023-04-29T21:42:52.234Z,82.02
2023-04-29T21:45:29.400Z,82.01
2023-04-29T21:48:18.243Z,82.09
2023-04-29T21:50:54.858Z,82.12
2023-04-29T21:53:31.034Z,82.19
2023-04-29T21:56:08.863Z,82.21
2023-04-29T21:58:45.222Z,82.28
2023-04-29T22:01:40.236Z,82.37
2023-04-29T22:04:17.391Z,82.42
2023-04-29T22:06:53.821Z,82.41
2023-04-29T22:09:31.043Z,82.55
2023-04-29T22:12:08.542Z,82.63
2023-04-29T22:14:44.828Z,82.87
2023-04-29T22:17:21.653Z,83.00
2023-04-29T22:19:58.131Z,83.11
2023-04-29T22:22:34.710Z,83.21
2023-04-29T22:25:13.057Z,83.26
2023-04-29T22:27:49.535Z,83.24
2023-04-29T22:30:25.953Z,83.16
2023-04-29T22:33:02.699Z,83.16
2023-04-29T22:35:39.193Z,83.20
2023-04-29T22:38:15.562Z,83.17
2023-04-29T22:40:56.596Z,83.22
2023-04-29T22:43:32.897Z,83.30
2023-04-29T22:46:09.804Z,83.24
2023-04-29T22:48:46.673Z,83.21
2023-04-29T22:51:23.128Z,83.20
2023-04-29T22:53:59.589Z,83.27
2023-04-29T22:56:36.264Z,83.38
2023-04-29T22:59:12.938Z,83.37
2023-04-29T23:01:49.516Z,83.30
2023-04-29T23:04:26.138Z,83.28
2023-04-29T23:07:02.528Z,83.22
2023-04-29T23:09:39.013Z,83.28
2023-04-29T23:12:15.400Z,83.32
2023-04-29T23:14:52.056Z,83.41
2023-04-29T23:17:28.427Z,83.53
2023-04-29T23:20:05.209Z,83.67
2023-04-29T23:22:41.470Z,83.72
2023-04-29T23:25:18.243Z,83.78
2023-04-29T23:27:55.761Z,83.90
2023-04-29T23:30:32.819Z,83.97
2023-04-29T23:33:09.428Z,84.03
2023-04-29T23:35:51.490Z,84.03
2023-04-29T23:38:27.901Z,84.01
2023-04-29T23:41:04.524Z,84.13
2023-04-29T23:43:40.888Z,84.18
2023-04-29T23:46:17.241Z,84.23
2023-04-29T23:48:53.609Z,84.25
2023-04-29T23:51:30.024Z,84.30
2023-04-29T23:54:06.648Z,84.30
2023-04-29T23:56:43.072Z,84.32
2023-04-29T23:59:19.533Z,84.32
